Time;durP1;ratioP1;P1;durP2;ratioP2;P2;SDS_P1;SDS_P2;PMS_P1;PMS_P2;Temp;Humidity;BMP_temperature;BMP_pressure;BME280_temperature;BME280_humidity;BME280_pressure;Samples;Min_cycle;Max_cycle;Signal;HPM_P1;HPM_P2
2023/03/08 00:00:35;;;;;;;8.07;4.90;;;0.50;99.90;;;;;;5010135;28;20046;-70
2023/03/08 00:03:01;;;;;;;8.80;5.97;;;0.50;99.90;;;;;;4975020;28;20046;-70
2023/03/08 00:05:27;;;;;;;11.95;5.53;;;0.50;99.90;;;;;;4994775;28;20471;-70
2023/03/08 00:07:53;;;;;;;10.98;5.40;;;0.60;99.90;;;;;;4994069;28;20088;-70
2023/03/08 00:10:19;;;;;;;13.80;6.43;;;0.60;99.90;;;;;;5011688;28;20145;-70
2023/03/08 00:12:44;;;;;;;9.00;5.78;;;0.70;99.90;;;;;;4997925;28;20084;-71
2023/03/08 00:15:10;;;;;;;8.63;5.38;;;0.70;99.90;;;;;;4995283;28;20525;-71
2023/03/08 00:17:37;;;;;;;9.88;6.50;;;0.80;99.90;;;;;;4994693;28;20053;-70
2023/03/08 00:20:05;;;;;;;9.15;6.13;;;0.80;99.90;;;;;;4993730;28;20073;-71
2023/03/08 00:22:38;;;;;;;9.27;6.13;;;0.80;99.90;;;;;;5005568;28;20470;-70
2023/03/08 00:25:04;;;;;;;11.00;6.28;;;0.80;99.90;;;;;;5018522;28;20097;-71
2023/03/08 00:27:30;;;;;;;9.20;5.85;;;0.80;99.90;;;;;;4978981;28;20037;-72
2023/03/08 00:29:55;;;;;;;11.77;5.80;;;0.90;99.90;;;;;;4994422;28;20052;-70
2023/03/08 00:32:23;;;;;;;14.32;6.63;;;1.10;99.90;;;;;;5012423;28;20084;-70
2023/03/08 00:34:50;;;;;;;11.13;6.28;;;0.80;99.90;;;;;;5014491;28;20056;-71
2023/03/08 00:37:15;;;;;;;13.40;6.65;;;0.90;99.90;;;;;;4995058;28;20057;-70
2023/03/08 00:39:41;;;;;;;11.07;6.65;;;1.00;99.90;;;;;;5010954;28;20120;-73
2023/03/08 00:42:07;;;;;;;11.85;7.38;;;0.90;99.90;;;;;;5013893;28;20140;-70
2023/03/08 00:44:33;;;;;;;10.98;6.93;;;0.90;99.90;;;;;;5000250;28;20053;-71
2023/03/08 00:46:59;;;;;;;11.60;6.97;;;1.00;99.90;;;;;;5012559;28;20145;-71
2023/03/08 00:49:25;;;;;;;9.82;6.30;;;1.00;99.90;;;;;;5010337;28;20042;-70
2023/03/08 00:51:51;;;;;;;10.20;6.32;;;1.00;99.90;;;;;;4991359;28;20170;-70
2023/03/08 00:54:16;;;;;;;10.93;7.22;;;1.00;99.90;;;;;;5011157;28;20062;-71
2023/03/08 00:56:42;;;;;;;12.00;7.88;;;1.00;99.90;;;;;;4991861;28;20054;-70
2023/03/08 00:59:08;;;;;;;13.73;7.18;;;0.90;99.90;;;;;;4999816;28;20486;-70
2023/03/08 01:01:33;;;;;;;15.05;7.57;;;1.00;99.90;;;;;;5009088;28;20509;-70
2023/03/08 01:04:00;;;;;;;12.15;6.97;;;1.00;99.90;;;;;;5013867;28;20041;-70
2023/03/08 01:06:26;;;;;;;12.48;7.80;;;1.00;99.90;;;;;;4999506;28;20052;-71
2023/03/08 01:08:52;;;;;;;14.57;8.00;;;1.00;99.90;;;;;;5007273;28;20050;-71
2023/03/08 01:11:22;;;;;;;13.05;7.25;;;1.10;99.90;;;;;;4995952;28;20065;-71
2023/03/08 01:13:48;;;;;;;13.15;6.80;;;1.00;99.90;;;;;;4978001;28;20147;-71
2023/03/08 01:16:16;;;;;;;13.65;7.85;;;1.00;99.90;;;;;;5016039;28;20063;-72
2023/03/08 01:18:41;;;;;;;11.90;7.47;;;1.10;99.90;;;;;;4991141;28;20054;-70
2023/03/08 01:21:08;;;;;;;13.20;7.60;;;1.10;99.90;;;;;;4969966;28;20352;-71
2023/03/08 01:23:34;;;;;;;11.75;8.13;;;1.00;99.90;;;;;;5010031;28;20605;-70
2023/03/08 01:26:00;;;;;;;14.05;8.02;;;1.10;99.90;;;;;;4999824;28;20161;-70
2023/03/08 01:28:27;;;;;;;12.88;7.78;;;1.10;99.90;;;;;;5010060;28;20124;-70
2023/03/08 01:30:53;;;;;;;12.65;7.80;;;1.10;99.90;;;;;;5010522;28;20060;-70
2023/03/08 01:33:19;;;;;;;11.80;7.95;;;1.10;99.90;;;;;;4990630;28;20687;-70
2023/03/08 01:35:46;;;;;;;15.68;7.78;;;1.10;99.90;;;;;;4987199;28;20052;-71
2023/03/08 01:38:12;;;;;;;11.25;7.15;;;1.10;99.90;;;;;;5014697;28;20046;-70
2023/03/08 01:40:38;;;;;;;12.15;7.68;;;1.10;99.90;;;;;;4994554;28;20038;-70
2023/03/08 01:43:21;;;;;;;12.55;6.85;;;1.10;99.90;;;;;;4997894;28;20107;-71
2023/03/08 01:46:06;;;;;;;10.00;7.43;;;1.20;99.90;;;;;;4996304;28;20044;-71
2023/03/08 01:48:59;;;;;;;10.48;7.00;;;1.20;99.90;;;;;;5011789;28;20049;-71
2023/03/08 01:51:43;;;;;;;14.07;7.35;;;1.20;99.90;;;;;;5000043;28;20073;-70
2023/03/08 01:54:25;;;;;;;11.82;7.30;;;1.10;99.90;;;;;;5010490;28;20078;-71
2023/03/08 01:56:51;;;;;;;10.27;6.70;;;1.20;99.90;;;;;;5004840;28;20089;-71
2023/03/08 01:59:17;;;;;;;10.73;6.13;;;1.20;99.90;;;;;;5009562;28;20081;-71
2023/03/08 02:01:43;;;;;;;13.55;7.20;;;1.30;99.90;;;;;;5013691;28;20060;-71
2023/03/08 02:04:08;;;;;;;11.30;7.05;;;1.20;99.90;;;;;;4989712;28;20474;-72
2023/03/08 02:06:34;;;;;;;11.50;6.85;;;1.20;99.90;;;;;;5016374;28;20041;-73
2023/03/08 02:09:03;;;;;;;11.25;7.15;;;1.20;99.90;;;;;;4993882;28;20699;-72
2023/03/08 02:11:29;;;;;;;11.57;6.43;;;1.20;99.90;;;;;;4993907;28;20433;-70
2023/03/08 02:13:57;;;;;;;12.30;7.25;;;1.20;99.90;;;;;;5009894;28;20057;-71
2023/03/08 02:16:23;;;;;;;11.80;7.47;;;1.30;99.90;;;;;;5009706;28;20045;-71
2023/03/08 02:18:56;;;;;;;15.27;7.53;;;1.20;99.90;;;;;;5015287;28;20076;-70
2023/03/08 02:21:22;;;;;;;13.00;7.25;;;1.20;99.90;;;;;;5011043;28;20061;-71
2023/03/08 02:23:48;;;;;;;10.70;7.25;;;1.30;99.90;;;;;;4992740;28;20443;-71
2023/03/08 02:26:14;;;;;;;13.45;6.95;;;1.30;99.90;;;;;;4994609;28;20046;-71
2023/03/08 02:28:39;;;;;;;12.07;7.18;;;1.30;99.90;;;;;;5018320;28;20045;-71
2023/03/08 02:31:05;;;;;;;12.63;6.53;;;1.20;99.90;;;;;;5013317;28;20103;-71
2023/03/08 02:33:33;;;;;;;12.55;7.03;;;1.20;99.90;;;;;;5011865;28;20537;-71
2023/03/08 02:36:00;;;;;;;9.50;6.25;;;1.10;99.90;;;;;;4996615;28;20115;-70
2023/03/08 02:38:26;;;;;;;9.48;6.78;;;1.20;99.90;;;;;;5014065;28;20050;-71
2023/03/08 02:40:52;;;;;;;10.25;6.25;;;1.20;99.90;;;;;;5012656;28;20399;-71
2023/03/08 02:43:18;;;;;;;11.93;6.97;;;1.20;99.90;;;;;;4999235;28;20539;-71
2023/03/08 02:45:44;;;;;;;13.10;6.97;;;1.30;99.90;;;;;;5013126;28;20116;-70
2023/03/08 02:48:10;;;;;;;12.60;6.70;;;1.30;99.90;;;;;;5001707;28;20042;-71
2023/03/08 02:50:35;;;;;;;9.65;6.30;;;1.20;99.90;;;;;;5016710;28;20045;-70
2023/03/08 02:53:02;;;;;;;10.30;5.65;;;1.20;99.90;;;;;;5018973;28;20049;-70
2023/03/08 02:55:28;;;;;;;9.80;6.38;;;1.30;99.90;;;;;;4997943;28;20151;-71
2023/03/08 02:57:54;;;;;;;9.40;6.00;;;1.30;99.90;;;;;;4996273;28;20624;-71
2023/03/08 03:00:20;;;;;;;10.68;6.18;;;1.30;99.90;;;;;;4996491;28;20050;-71
2023/03/08 03:02:45;;;;;;;11.10;6.10;;;1.20;99.90;;;;;;4997820;28;20049;-71
2023/03/08 03:05:11;;;;;;;8.38;5.88;;;1.30;99.90;;;;;;5014912;28;20377;-71
2023/03/08 03:07:38;;;;;;;10.30;6.10;;;1.30;99.90;;;;;;5014896;28;20056;-71
2023/03/08 03:10:04;;;;;;;10.23;6.40;;;1.30;99.90;;;;;;4995903;28;20433;-71
2023/03/08 03:12:30;;;;;;;10.27;6.10;;;1.30;99.90;;;;;;4995579;28;20084;-71
2023/03/08 03:14:56;;;;;;;17.23;6.32;;;1.20;99.90;;;;;;4998456;28;20073;-71
2023/03/08 03:17:22;;;;;;;10.68;6.00;;;1.30;99.90;;;;;;5016154;28;20053;-71
2023/03/08 03:19:47;;;;;;;11.32;6.38;;;1.20;99.90;;;;;;4998310;28;20049;-71
2023/03/08 03:22:13;;;;;;;9.80;5.63;;;1.20;99.90;;;;;;5013019;28;20809;-71
2023/03/08 03:24:39;;;;;;;10.48;5.70;;;1.30;99.90;;;;;;4994903;28;20046;-71
2023/03/08 03:27:05;;;;;;;9.95;5.68;;;1.30;99.90;;;;;;5012221;28;20073;-71
2023/03/08 03:29:31;;;;;;;7.10;5.05;;;1.30;99.90;;;;;;5012080;28;20045;-70
2023/03/08 03:31:56;;;;;;;8.95;5.35;;;1.30;99.90;;;;;;5000627;28;20041;-70
2023/03/08 03:34:22;;;;;;;9.50;5.28;;;1.20;99.90;;;;;;4996022;28;20478;-71
2023/03/08 03:36:48;;;;;;;12.15;5.78;;;1.10;99.90;;;;;;5012859;28;20050;-71
2023/03/08 03:39:14;;;;;;;12.80;5.60;;;1.20;99.90;;;;;;5012646;28;20124;-71
2023/03/08 03:41:39;;;;;;;12.13;6.05;;;1.10;99.90;;;;;;4996681;28;20045;-71
2023/03/08 03:44:05;;;;;;;9.10;4.93;;;1.20;99.90;;;;;;5011857;28;20045;-71
2023/03/08 03:46:32;;;;;;;11.93;5.95;;;1.10;99.90;;;;;;5011359;28;20038;-71
2023/03/08 03:48:58;;;;;;;10.13;5.65;;;1.10;99.90;;;;;;4995233;28;20136;-71
2023/03/08 03:51:25;;;;;;;13.32;5.85;;;1.00;99.90;;;;;;5011456;28;20611;-71
2023/03/08 03:53:51;;;;;;;10.25;5.38;;;1.00;99.90;;;;;;5009333;28;20042;-71
2023/03/08 03:56:22;;;;;;;8.80;5.70;;;1.10;99.90;;;;;;4978638;28;20046;-71
2023/03/08 03:58:48;;;;;;;11.60;6.05;;;1.00;99.90;;;;;;5011468;28;20041;-71
2023/03/08 04:01:23;;;;;;;14.75;6.47;;;1.00;99.90;;;;;;5013341;28;20072;-71
2023/03/08 04:03:49;;;;;;;13.25;5.82;;;0.90;99.90;;;;;;5012237;28;20042;-71
2023/03/08 04:06:17;;;;;;;10.30;6.10;;;0.90;99.90;;;;;;5013363;28;20045;-70
2023/03/08 04:08:42;;;;;;;10.85;6.25;;;1.00;99.90;;;;;;5010675;28;20698;-71
2023/03/08 04:11:13;;;;;;;12.70;6.25;;;1.00;99.90;;;;;;5011266;28;20077;-71
2023/03/08 04:13:39;;;;;;;12.27;6.10;;;1.00;99.90;;;;;;5012004;28;20050;-71
2023/03/08 04:16:09;;;;;;;11.43;6.50;;;1.00;99.90;;;;;;4992259;28;20174;-71
2023/03/08 04:18:34;;;;;;;9.60;5.35;;;0.90;99.90;;;;;;5005471;28;20053;-71
2023/03/08 04:21:00;;;;;;;11.18;6.28;;;0.90;99.90;;;;;;5010878;28;20045;-71
2023/03/08 04:23:26;;;;;;;11.23;7.03;;;0.80;99.90;;;;;;4979032;28;20068;-70
2023/03/08 04:25:52;;;;;;;9.95;6.78;;;0.90;99.90;;;;;;5010846;28;20080;-70
2023/03/08 04:28:17;;;;;;;10.05;6.78;;;0.80;99.90;;;;;;5006030;28;20049;-71
2023/03/08 04:30:43;;;;;;;13.50;6.57;;;0.80;99.90;;;;;;5010918;28;20045;-70
2023/03/08 04:33:09;;;;;;;16.13;7.50;;;0.80;99.90;;;;;;5010314;28;20344;-71
2023/03/08 04:35:35;;;;;;;12.10;7.00;;;0.80;99.90;;;;;;5006871;28;20497;-70
2023/03/08 04:38:01;;;;;;;12.52;6.82;;;0.80;99.90;;;;;;5010669;28;20045;-71
2023/03/08 04:40:27;;;;;;;12.82;7.38;;;0.70;99.90;;;;;;5010713;28;20065;-71
2023/03/08 04:42:52;;;;;;;14.02;7.57;;;0.70;99.90;;;;;;5004367;28;20046;-71
2023/03/08 04:45:18;;;;;;;13.85;7.72;;;0.60;99.90;;;;;;4990021;28;20073;-70
2023/03/08 04:47:44;;;;;;;17.95;7.30;;;0.60;99.90;;;;;;5007822;28;20076;-70
2023/03/08 04:50:10;;;;;;;14.25;7.72;;;0.60;99.90;;;;;;4989080;28;20053;-70
2023/03/08 04:52:36;;;;;;;16.73;7.72;;;0.60;99.90;;;;;;4996358;28;20056;-70
2023/03/08 04:55:02;;;;;;;11.48;7.20;;;0.60;99.90;;;;;;4994630;28;20072;-70
2023/03/08 04:57:27;;;;;;;16.00;8.35;;;0.50;99.90;;;;;;4989681;28;20073;-70
2023/03/08 04:59:53;;;;;;;16.33;7.80;;;0.50;99.90;;;;;;5011408;28;20053;-70
2023/03/08 05:02:21;;;;;;;16.77;8.90;;;0.50;99.90;;;;;;5003608;28;20123;-71
2023/03/08 05:04:47;;;;;;;15.30;7.60;;;0.50;99.90;;;;;;5012723;28;20136;-71
2023/03/08 05:07:13;;;;;;;12.23;7.65;;;0.50;99.90;;;;;;4987819;28;20113;-70
2023/03/08 05:09:38;;;;;;;16.55;8.45;;;0.50;99.90;;;;;;5000652;28;20053;-70
2023/03/08 05:12:04;;;;;;;15.52;8.15;;;0.40;99.90;;;;;;5007671;28;20466;-70
2023/03/08 05:14:30;;;;;;;14.85;8.43;;;0.40;99.90;;;;;;5007185;28;20053;-70
2023/03/08 05:16:56;;;;;;;15.82;8.50;;;0.50;99.90;;;;;;5007682;28;20084;-70
2023/03/08 05:19:22;;;;;;;17.65;10.40;;;0.50;99.90;;;;;;5010768;28;20065;-70
2023/03/08 05:21:47;;;;;;;15.50;9.18;;;0.50;99.90;;;;;;5006583;28;20558;-70
2023/03/08 05:24:13;;;;;;;14.48;8.30;;;0.40;99.90;;;;;;5005739;28;20073;-71
2023/03/08 05:26:39;;;;;;;17.35;7.80;;;0.40;99.90;;;;;;4977311;28;20065;-70
2023/03/08 05:29:05;;;;;;;14.43;8.90;;;0.40;99.90;;;;;;5004344;28;20052;-70
2023/03/08 05:31:31;;;;;;;16.90;8.45;;;0.40;99.90;;;;;;4989649;28;20076;-70
2023/03/08 05:33:57;;;;;;;17.77;9.13;;;0.40;99.90;;;;;;4987027;28;20050;-70
2023/03/08 05:36:23;;;;;;;16.85;9.63;;;0.30;99.90;;;;;;4986282;28;20046;-70
2023/03/08 05:38:55;;;;;;;16.95;9.45;;;0.30;99.90;;;;;;4989815;28;20529;-70
2023/03/08 05:41:21;;;;;;;18.70;8.95;;;0.30;99.90;;;;;;5009486;28;20352;-70
2023/03/08 05:43:46;;;;;;;16.88;8.75;;;0.30;99.90;;;;;;4971786;28;20053;-70
2023/03/08 05:46:14;;;;;;;17.88;9.45;;;0.40;99.90;;;;;;5004627;28;20050;-70
2023/03/08 05:48:40;;;;;;;18.10;9.77;;;0.40;99.90;;;;;;5007346;28;20068;-70
2023/03/08 05:51:07;;;;;;;18.00;9.35;;;0.40;99.90;;;;;;4992936;28;20073;-70
2023/03/08 05:53:33;;;;;;;21.80;10.57;;;0.40;99.90;;;;;;5007039;28;20046;-71
2023/03/08 05:56:12;;;;;;;20.67;10.45;;;0.30;99.90;;;;;;5001106;28;20042;-71
2023/03/08 05:58:38;;;;;;;18.23;9.75;;;0.30;99.90;;;;;;5009995;28;20053;-70
2023/03/08 06:01:15;;;;;;;20.90;11.93;;;0.30;99.90;;;;;;5008535;28;20370;-70
2023/03/08 06:03:41;;;;;;;17.70;9.52;;;0.40;99.90;;;;;;5017968;28;20120;-71
2023/03/08 06:06:07;;;;;;;18.75;10.02;;;0.40;99.90;;;;;;4995752;28;20041;-70
2023/03/08 06:08:33;;;;;;;17.10;9.40;;;0.30;99.90;;;;;;4997188;28;20483;-71
2023/03/08 06:11:00;;;;;;;19.05;9.75;;;0.30;99.90;;;;;;4996745;28;20147;-71
2023/03/08 06:13:26;;;;;;;20.02;11.05;;;0.40;99.90;;;;;;5014019;28;20057;-71
2023/03/08 06:15:58;;;;;;;18.83;10.55;;;0.40;99.90;;;;;;4992822;28;20042;-70
2023/03/08 06:18:24;;;;;;;20.10;10.65;;;0.30;99.90;;;;;;5015441;28;20049;-70
2023/03/08 06:20:56;;;;;;;20.33;10.90;;;0.40;99.90;;;;;;5000053;28;20214;-71
2023/03/08 06:23:26;;;;;;;21.23;11.45;;;0.50;99.90;;;;;;5008931;28;20060;-70
2023/03/08 06:25:54;;;;;;;19.30;10.23;;;0.50;99.90;;;;;;4997656;28;20049;-71
2023/03/08 06:28:20;;;;;;;18.40;10.02;;;0.60;99.90;;;;;;5006382;28;20045;-70
2023/03/08 06:30:48;;;;;;;20.17;11.02;;;0.60;99.90;;;;;;4992747;28;20131;-71
2023/03/08 06:33:17;;;;;;;24.83;10.00;;;0.60;99.90;;;;;;4998944;28;20128;-71
2023/03/08 06:35:43;;;;;;;23.63;11.38;;;0.60;99.90;;;;;;5006366;28;20050;-71
2023/03/08 06:38:09;;;;;;;18.10;10.50;;;0.60;99.90;;;;;;5009242;28;20482;-71
2023/03/08 06:40:35;;;;;;;22.40;10.68;;;0.70;99.90;;;;;;4996587;28;20061;-71
2023/03/08 06:43:00;;;;;;;18.77;11.00;;;0.70;99.90;;;;;;5011751;28;20468;-71
2023/03/08 06:45:26;;;;;;;19.20;11.00;;;0.70;99.90;;;;;;4980387;28;20132;-70
2023/03/08 06:47:52;;;;;;;19.52;11.65;;;0.80;99.90;;;;;;4979549;28;20196;-70
2023/03/08 06:50:18;;;;;;;21.42;11.10;;;0.80;99.90;;;;;;4990779;28;20049;-71
2023/03/08 06:52:43;;;;;;;26.63;10.98;;;0.70;99.90;;;;;;5012443;28;20164;-71
2023/03/08 06:55:10;;;;;;;18.52;10.23;;;0.70;99.90;;;;;;4995804;28;20363;-71
2023/03/08 06:57:35;;;;;;;21.05;10.40;;;0.70;99.90;;;;;;5012839;28;20050;-71
2023/03/08 07:00:02;;;;;;;20.58;10.65;;;0.80;99.90;;;;;;4975202;28;20053;-71
2023/03/08 07:02:28;;;;;;;22.25;11.70;;;0.70;99.90;;;;;;5008037;28;20054;-71
2023/03/08 07:04:54;;;;;;;20.42;11.15;;;0.80;99.90;;;;;;4996039;28;20052;-71
2023/03/08 07:07:19;;;;;;;21.95;11.82;;;0.80;99.90;;;;;;5008414;28;20084;-71
2023/03/08 07:09:45;;;;;;;22.10;12.45;;;0.80;99.90;;;;;;5010575;28;20115;-71
2023/03/08 07:12:11;;;;;;;21.90;12.63;;;0.80;99.90;;;;;;4971527;28;20053;-71
2023/03/08 07:14:37;;;;;;;19.33;11.52;;;0.80;99.90;;;;;;5009609;28;20064;-71
2023/03/08 07:17:04;;;;;;;27.50;12.80;;;0.80;99.90;;;;;;4994563;28;20054;-71
2023/03/08 07:19:30;;;;;;;23.80;13.35;;;0.80;99.90;;;;;;5012616;28;20042;-71
2023/03/08 07:21:56;;;;;;;25.30;13.25;;;0.80;99.90;;;;;;4999336;28;20053;-71
2023/03/08 07:24:21;;;;;;;26.35;14.55;;;0.90;99.90;;;;;;4976680;28;20548;-71
2023/03/08 07:26:49;;;;;;;24.42;13.43;;;1.00;99.90;;;;;;5008215;28;20050;-71
2023/03/08 07:29:15;;;;;;;23.48;13.82;;;1.00;99.90;;;;;;5008366;28;20045;-71
2023/03/08 07:31:40;;;;;;;26.35;14.15;;;1.00;99.90;;;;;;4980657;28;20056;-71
2023/03/08 07:34:06;;;;;;;24.58;14.60;;;1.00;99.90;;;;;;5006939;28;20060;-71
2023/03/08 07:36:32;;;;;;;25.13;14.25;;;1.00;99.90;;;;;;4992498;28;20054;-71
2023/03/08 07:38:59;;;;;;;26.27;14.05;;;1.00;99.90;;;;;;4994110;28;20047;-71
2023/03/08 07:41:29;;;;;;;24.98;14.20;;;1.10;99.90;;;;;;4995295;28;20050;-71
2023/03/08 07:43:55;;;;;;;23.15;13.35;;;1.20;99.90;;;;;;5006167;28;20192;-71
2023/03/08 07:46:26;;;;;;;26.15;12.85;;;1.20;99.90;;;;;;5006669;28;20518;-71
2023/03/08 07:48:52;;;;;;;28.35;14.10;;;1.20;99.90;;;;;;4993276;28;20050;-71
2023/03/08 07:51:18;;;;;;;25.42;13.65;;;1.10;99.90;;;;;;4976554;28;20189;-71
2023/03/08 07:53:44;;;;;;;24.92;13.57;;;1.20;99.90;;;;;;4991441;28;20065;-71
2023/03/08 07:56:10;;;;;;;26.35;13.95;;;1.30;99.90;;;;;;4995479;28;20055;-71
2023/03/08 07:58:36;;;;;;;23.35;13.95;;;1.40;99.90;;;;;;5008189;28;20050;-70
2023/03/08 08:01:13;;;;;;;19.73;11.98;;;1.30;99.90;;;;;;4978550;28;20054;-70
2023/03/08 08:03:41;;;;;;;20.97;12.23;;;1.40;99.90;;;;;;4993929;28;20099;-70
2023/03/08 08:06:06;;;;;;;23.38;12.90;;;1.50;99.90;;;;;;4993150;28;20048;-71
2023/03/08 08:08:32;;;;;;;22.52;13.52;;;1.50;99.90;;;;;;5007116;28;20042;-71
2023/03/08 08:10:58;;;;;;;24.80;13.95;;;1.70;99.90;;;;;;5010181;28;20463;-71
2023/03/08 08:13:25;;;;;;;24.95;14.23;;;1.80;99.90;;;;;;4992949;28;20077;-70
2023/03/08 08:15:59;;;;;;;23.15;13.52;;;1.70;99.90;;;;;;5008778;28;20049;-71
2023/03/08 08:18:26;;;;;;;22.55;12.85;;;1.70;99.90;;;;;;4977048;28;20057;-71
2023/03/08 08:21:06;;;;;;;21.77;12.70;;;1.80;99.90;;;;;;4997350;28;20054;-71
2023/03/08 08:23:34;;;;;;;21.70;11.77;;;1.90;99.90;;;;;;5008513;28;20072;-71
2023/03/08 08:25:59;;;;;;;22.67;11.68;;;1.90;99.90;;;;;;4977209;28;20052;-70
2023/03/08 08:28:25;;;;;;;24.13;13.55;;;2.00;99.90;;;;;;5008594;28;20058;-71
2023/03/08 08:30:56;;;;;;;22.05;12.52;;;1.90;99.90;;;;;;4973771;28;20042;-69
2023/03/08 08:33:22;;;;;;;22.17;12.52;;;1.80;99.90;;;;;;4993291;28;20501;-70
2023/03/08 08:35:48;;;;;;;21.15;12.90;;;1.60;99.90;;;;;;5003530;28;20069;-69
2023/03/08 08:38:13;;;;;;;24.92;13.88;;;1.40;99.90;;;;;;4990907;28;20113;-72
2023/03/08 08:40:39;;;;;;;22.80;13.00;;;1.60;99.90;;;;;;5008846;28;20466;-71
2023/03/08 08:43:05;;;;;;;23.65;13.50;;;1.80;99.90;;;;;;4977880;28;20050;-72
2023/03/08 08:45:31;;;;;;;20.60;11.90;;;1.80;99.90;;;;;;4996926;28;20132;-70
2023/03/08 08:47:56;;;;;;;21.25;11.45;;;1.70;99.90;;;;;;5009539;28;20053;-70
2023/03/08 08:50:22;;;;;;;21.38;12.52;;;1.70;99.90;;;;;;5004969;28;20052;-70
2023/03/08 08:52:48;;;;;;;22.60;12.32;;;1.90;99.90;;;;;;4993199;28;20470;-70
2023/03/08 08:55:13;;;;;;;21.25;13.00;;;1.90;99.90;;;;;;4992948;28;20049;-70
2023/03/08 08:57:39;;;;;;;18.70;11.85;;;2.00;99.90;;;;;;5005505;28;20041;-70
2023/03/08 09:00:08;;;;;;;20.63;11.98;;;2.00;99.90;;;;;;4993813;28;20045;-71
2023/03/08 09:02:35;;;;;;;21.70;11.70;;;2.00;99.90;;;;;;4994263;28;20521;-73
2023/03/08 09:05:00;;;;;;;22.60;12.93;;;1.80;99.90;;;;;;4993459;28;20045;-73
2023/03/08 09:07:29;;;;;;;20.75;11.73;;;1.80;99.90;;;;;;5011185;28;20042;-73
2023/03/08 09:09:59;;;;;;;;;;;2.00;99.90;;;;;;4990489;28;20054;-73
2023/03/08 09:12:25;;;;;;;22.17;12.23;;;2.00;99.90;;;;;;4990042;28;19914;-73
2023/03/08 09:14:51;;;;;;;24.45;13.65;;;1.90;99.90;;;;;;4977433;28;20291;-73
2023/03/08 09:17:18;;;;;;;19.23;10.70;;;2.00;99.90;;;;;;4986459;28;20046;-73
2023/03/08 09:19:43;;;;;;;18.05;11.38;;;2.10;99.90;;;;;;4996351;28;20045;-73
2023/03/08 09:22:10;;;;;;;20.45;12.85;;;2.00;99.90;;;;;;4977927;28;20462;-73
2023/03/08 09:24:37;;;;;;;18.80;11.23;;;2.00;99.90;;;;;;4975895;28;20475;-73
2023/03/08 09:27:06;;;;;;;18.75;11.00;;;2.40;99.90;;;;;;5009462;28;21904;-73
2023/03/08 09:29:32;;;;;;;18.95;11.52;;;2.60;99.90;;;;;;4962917;28;20046;-73
2023/03/08 09:31:58;;;;;;;22.35;12.95;;;2.30;99.90;;;;;;4994117;28;20085;-73
2023/03/08 09:34:24;;;;;;;21.55;12.07;;;2.50;99.90;;;;;;4993521;28;20340;-73
2023/03/08 09:36:50;;;;;;;19.40;11.93;;;2.60;99.90;;;;;;4994063;28;20052;-73
2023/03/08 09:39:16;;;;;;;19.90;12.13;;;2.70;99.90;;;;;;4994089;28;20076;-73
2023/03/08 09:41:52;;;;;;;20.35;12.18;;;2.70;99.90;;;;;;5016590;28;20085;-73
2023/03/08 09:44:42;;;;;;;21.70;11.43;;;2.90;99.90;;;;;;5010896;28;20042;-74
2023/03/08 09:47:12;;;;;;;18.10;11.30;;;3.00;99.90;;;;;;5007684;28;20033;-73
2023/03/08 09:49:38;;;;;;;17.40;11.07;;;3.00;99.90;;;;;;5010535;28;20038;-73
2023/03/08 09:52:07;;;;;;;16.73;10.43;;;2.90;99.90;;;;;;5012390;28;20060;-73
2023/03/08 09:54:34;;;;;;;17.80;10.68;;;3.00;99.90;;;;;;4993890;28;20046;-71
2023/03/08 09:56:59;;;;;;;18.38;11.75;;;3.10;99.90;;;;;;5008752;28;20048;-70
2023/03/08 09:59:39;;;;;;;17.17;10.95;;;3.10;99.90;;;;;;4976903;28;20042;-70
2023/03/08 10:02:43;;;;;;;18.77;11.13;;;3.00;99.90;;;;;;4993056;28;20050;-71
2023/03/08 10:05:35;;;;;;;18.92;11.25;;;2.90;99.90;;;;;;5009140;28;20046;-71
2023/03/08 10:08:20;;;;;;;16.60;9.98;;;3.10;99.90;;;;;;4993200;28;20049;-70
2023/03/08 10:11:06;;;;;;;19.77;11.10;;;3.10;99.90;;;;;;4990058;28;20439;-70
2023/03/08 10:13:34;;;;;;;17.38;10.95;;;3.00;99.90;;;;;;4992706;28;20054;-70
2023/03/08 10:16:18;;;;;;;15.63;10.35;;;3.00;99.90;;;;;;5006431;28;20073;-70
2023/03/08 10:19:04;;;;;;;17.00;11.20;;;3.00;99.90;;;;;;4993513;28;20056;-71
2023/03/08 10:21:31;;;;;;;16.77;10.68;;;3.00;99.90;;;;;;5009579;28;20086;-71
2023/03/08 10:24:17;;;;;;;16.63;11.05;;;3.10;99.90;;;;;;4974997;28;20053;-70
2023/03/08 10:26:43;;;;;;;19.40;12.43;;;3.20;99.90;;;;;;5009535;28;20053;-70
2023/03/08 10:29:12;;;;;;;18.25;10.65;;;3.10;99.90;;;;;;4992558;28;20049;-71
2023/03/08 10:31:38;;;;;;;15.73;10.07;;;2.90;99.90;;;;;;5008764;28;20057;-71
2023/03/08 10:34:24;;;;;;;16.00;9.88;;;2.90;99.90;;;;;;4993249;28;20386;-71
2023/03/08 10:36:52;;;;;;;15.95;10.68;;;3.10;99.90;;;;;;5003380;28;20048;-71
2023/03/08 10:39:18;;;;;;;15.57;10.23;;;3.00;99.90;;;;;;4989405;28;20088;-71
2023/03/08 10:41:49;;;;;;;18.15;9.95;;;3.10;99.90;;;;;;4983221;28;20065;-71
2023/03/08 10:44:43;;;;;;;16.13;9.55;;;3.20;99.90;;;;;;5009324;28;20037;-71
2023/03/08 10:47:20;;;;;;;16.45;10.05;;;3.20;99.90;;;;;;5008795;28;20104;-71
2023/03/08 10:49:46;;;;;;;20.05;10.02;;;3.20;99.90;;;;;;5032109;28;20493;-71
2023/03/08 10:52:27;;;;;;;14.80;9.70;;;3.20;99.90;;;;;;5010659;28;20060;-71
2023/03/08 10:55:13;;;;;;;16.95;10.45;;;3.30;99.90;;;;;;4996923;28;20057;-73
2023/03/08 10:57:40;;;;;;;17.98;10.38;;;3.40;99.90;;;;;;5007394;28;20056;-71
2023/03/08 11:00:19;;;;;;;17.52;10.20;;;3.30;99.90;;;;;;4997235;28;20059;-72
2023/03/08 11:02:46;;;;;;;18.15;10.50;;;3.50;99.90;;;;;;5011314;28;20050;-71
2023/03/08 11:05:20;;;;;;;17.23;10.45;;;3.50;99.90;;;;;;4996116;28;20041;-72
2023/03/08 11:07:56;;;;;;;15.85;9.43;;;3.50;99.90;;;;;;4996188;28;20049;-72
2023/03/08 11:10:25;;;;;;;17.98;10.18;;;3.50;99.90;;;;;;5011472;28;20072;-71
2023/03/08 11:13:00;;;;;;;13.32;8.98;;;3.40;99.90;;;;;;4996315;28;20089;-71
2023/03/08 11:15:26;;;;;;;15.10;9.43;;;3.30;99.90;;;;;;5006344;28;20045;-72
2023/03/08 11:18:14;;;;;;;14.52;9.00;;;3.30;99.90;;;;;;4992245;28;20882;-72
2023/03/08 11:20:47;;;;;;;13.23;9.10;;;3.40;99.90;;;;;;4992875;28;20173;-72
2023/03/08 11:23:36;;;;;;;16.23;9.40;;;3.60;99.90;;;;;;4996141;28;20053;-72
2023/03/08 11:26:15;;;;;;;17.92;10.65;;;3.60;99.90;;;;;;5007071;28;20575;-72
2023/03/08 11:28:53;;;;;;;18.02;9.98;;;3.60;99.90;;;;;;4979706;28;20046;-72
2023/03/08 11:31:25;;;;;;;16.35;10.80;;;3.70;99.90;;;;;;5012134;28;20048;-72
2023/03/08 11:34:09;;;;;;;15.80;10.77;;;3.80;99.90;;;;;;4995916;28;20458;-72
2023/03/08 11:36:47;;;;;;;15.65;9.88;;;3.80;99.90;;;;;;4995769;28;20041;-72
2023/03/08 11:39:18;;;;;;;15.80;10.33;;;3.90;99.90;;;;;;4996333;28;20049;-72
2023/03/08 11:41:54;;;;;;;16.58;10.45;;;3.80;99.90;;;;;;5012021;28;20123;-71
2023/03/08 11:44:56;;;;;;;11.55;7.25;;;3.80;99.90;;;;;;4986909;28;20038;-72
2023/03/08 11:47:34;;;;;;;11.85;5.75;;;3.60;99.90;;;;;;5011615;28;20037;-72
2023/03/08 11:50:09;;;;;;;11.07;4.43;;;3.40;99.90;;;;;;5017668;28;20537;-71
2023/03/08 11:53:00;;;;;;;6.97;3.58;;;3.40;99.90;;;;;;4995853;28;20084;-71
2023/03/08 11:55:46;;;;;;;7.50;4.07;;;3.20;99.90;;;;;;5011550;28;20149;-71
2023/03/08 11:58:17;;;;;;;8.82;5.40;;;3.30;99.90;;;;;;4956074;28;20050;-71
2023/03/08 12:00:43;;;;;;;9.73;4.78;;;3.30;99.90;;;;;;5011832;28;20049;-72
2023/03/08 12:03:24;;;;;;;8.30;5.60;;;3.40;99.90;;;;;;4994051;28;20056;-71
2023/03/08 12:05:54;;;;;;;11.07;5.90;;;3.30;99.90;;;;;;5007953;28;20049;-71
2023/03/08 12:08:28;;;;;;;10.43;6.47;;;3.10;99.90;;;;;;5010038;28;20046;-71
2023/03/08 12:11:09;;;;;;;12.18;7.05;;;3.10;99.90;;;;;;5009982;28;20479;-72
2023/03/08 12:13:45;;;;;;;11.48;6.65;;;3.20;99.90;;;;;;5008811;28;20038;-73
2023/03/08 12:16:42;;;;;;;10.27;6.30;;;3.30;99.90;;;;;;4992526;28;20080;-72
2023/03/08 12:19:33;;;;;;;9.32;5.25;;;3.30;99.90;;;;;;5012385;28;20155;-71
2023/03/08 12:22:19;;;;;;;9.40;5.45;;;3.20;99.90;;;;;;5004321;28;20123;-71
2023/03/08 12:25:07;;;;;;;9.32;4.53;;;3.30;99.90;;;;;;5006742;28;20046;-71
2023/03/08 12:27:41;;;;;;;10.20;5.50;;;3.10;99.90;;;;;;5011554;28;20056;-72
2023/03/08 12:30:16;;;;;;;7.57;4.97;;;3.00;99.90;;;;;;4992526;28;20133;-71
2023/03/08 12:32:42;;;;;;;9.52;5.88;;;2.90;99.90;;;;;;4988408;28;20567;-71
2023/03/08 12:35:26;;;;;;;7.85;4.68;;;2.90;99.90;;;;;;4993539;28;20060;-71
2023/03/08 12:38:17;;;;;;;8.73;5.50;;;2.90;99.90;;;;;;4994362;28;20046;-72
2023/03/08 12:40:51;;;;;;;8.05;4.70;;;3.00;99.90;;;;;;5010512;28;20615;-72
2023/03/08 12:43:19;;;;;;;7.13;4.40;;;3.10;99.90;;;;;;4993981;28;20450;-71
2023/03/08 12:46:06;;;;;;;10.05;4.53;;;3.00;99.90;;;;;;5011113;28;20076;-72
2023/03/08 12:48:39;;;;;;;8.52;5.20;;;2.90;99.90;;;;;;4990617;28;20044;-71
2023/03/08 12:51:16;;;;;;;9.05;4.90;;;2.90;99.90;;;;;;5010549;28;20072;-71
2023/03/08 12:53:50;;;;;;;6.88;4.65;;;2.90;99.90;;;;;;5007756;28;20049;-71
2023/03/08 12:56:35;;;;;;;8.88;5.22;;;2.90;99.90;;;;;;5010584;28;20046;-71